sensor_id;sensor_type;location;lat;lon;timestamp;P1;durP1;ratioP1;P2;durP2;ratioP2
10939;SDS011;5522;42.696;23.494;2023-05-10T00:00:39;1.13;;;0.85;;
10939;SDS011;5522;42.696;23.494;2023-05-10T00:03:06;1.00;;;1.00;;
10939;SDS011;5522;42.696;23.494;2023-05-10T00:05:33;1.23;;;1.23;;
10939;SDS011;5522;42.696;23.494;2023-05-10T00:08:00;1.88;;;1.77;;
10939;SDS011;5522;42.696;23.494;2023-05-10T00:10:27;2.00;;;1.90;;
10939;SDS011;5522;42.696;23.494;2023-05-10T00:12:54;1.77;;;1.45;;
10939;SDS011;5522;42.696;23.494;2023-05-10T00:15:22;2.95;;;2.63;;
10939;SDS011;5522;42.696;23.494;2023-05-10T00:17:49;2.67;;;2.47;;
10939;SDS011;5522;42.696;23.494;2023-05-10T00:20:15;2.67;;;2.58;;
10939;SDS011;5522;42.696;23.494;2023-05-10T00:22:42;3.45;;;3.33;;
10939;SDS011;5522;42.696;23.494;2023-05-10T00:25:09;3.30;;;2.92;;
10939;SDS011;5522;42.696;23.494;2023-05-10T00:27:36;3.60;;;3.50;;
10939;SDS011;5522;42.696;23.494;2023-05-10T00:30:03;3.10;;;2.90;;
10939;SDS011;5522;42.696;23.494;2023-05-10T00:32:32;3.42;;;3.22;;
10939;SDS011;5522;42.696;23.494;2023-05-10T00:34:59;2.90;;;2.80;;
10939;SDS011;5522;42.696;23.494;2023-05-10T00:37:26;3.47;;;2.95;;
10939;SDS011;5522;42.696;23.494;2023-05-10T00:39:53;3.95;;;3.22;;
10939;SDS011;5522;42.696;23.494;2023-05-10T00:42:20;3.45;;;3.35;;
10939;SDS011;5522;42.696;23.494;2023-05-10T00:44:47;4.05;;;3.83;;
10939;SDS011;5522;42.696;23.494;2023-05-10T00:47:14;3.95;;;3.75;;
10939;SDS011;5522;42.696;23.494;2023-05-10T00:49:43;3.67;;;3.47;;
10939;SDS011;5522;42.696;23.494;2023-05-10T00:52:11;4.38;;;4.15;;
10939;SDS011;5522;42.696;23.494;2023-05-10T00:54:37;3.80;;;3.60;;
10939;SDS011;5522;42.696;23.494;2023-05-10T00:57:04;4.30;;;3.35;;
10939;SDS011;5522;42.696;23.494;2023-05-10T00:59:31;4.18;;;3.85;;
10939;SDS011;5522;42.696;23.494;2023-05-10T01:07:10;5.18;;;4.60;;
10939;SDS011;5522;42.696;23.494;2023-05-10T01:09:37;5.32;;;4.95;;
10939;SDS011;5522;42.696;23.494;2023-05-10T01:12:04;5.78;;;5.25;;
10939;SDS011;5522;42.696;23.494;2023-05-10T01:14:32;6.22;;;5.63;;
10939;SDS011;5522;42.696;23.494;2023-05-10T01:17:01;6.93;;;6.43;;
10939;SDS011;5522;42.696;23.494;2023-05-10T01:19:29;6.78;;;6.28;;
10939;SDS011;5522;42.696;23.494;2023-05-10T01:22:02;5.78;;;5.38;;
10939;SDS011;5522;42.696;23.494;2023-05-10T01:24:45;8.25;;;7.53;;
10939;SDS011;5522;42.696;23.494;2023-05-10T01:27:47;8.80;;;8.10;;
10939;SDS011;5522;42.696;23.494;2023-05-10T01:30:31;10.02;;;8.95;;
10939;SDS011;5522;42.696;23.494;2023-05-10T01:33:11;10.07;;;9.15;;
10939;SDS011;5522;42.696;23.494;2023-05-10T01:35:43;10.07;;;9.07;;
10939;SDS011;5522;42.696;23.494;2023-05-10T01:38:20;9.88;;;9.07;;
10939;SDS011;5522;42.696;23.494;2023-05-10T01:40:56;10.05;;;8.95;;
10939;SDS011;5522;42.696;23.494;2023-05-10T01:43:36;10.02;;;8.70;;
10939;SDS011;5522;42.696;23.494;2023-05-10T01:46:09;9.18;;;8.38;;
10939;SDS011;5522;42.696;23.494;2023-05-10T01:48:46;9.13;;;8.32;;
10939;SDS011;5522;42.696;23.494;2023-05-10T01:51:15;9.35;;;8.43;;
10939;SDS011;5522;42.696;23.494;2023-05-10T01:53:46;9.63;;;8.60;;
10939;SDS011;5522;42.696;23.494;2023-05-10T01:56:15;8.95;;;8.20;;
10939;SDS011;5522;42.696;23.494;2023-05-10T01:58:43;9.00;;;8.23;;
10939;SDS011;5522;42.696;23.494;2023-05-10T02:01:14;8.65;;;7.82;;
10939;SDS011;5522;42.696;23.494;2023-05-10T02:03:43;10.05;;;8.70;;
10939;SDS011;5522;42.696;23.494;2023-05-10T02:06:11;9.10;;;8.30;;
10939;SDS011;5522;42.696;23.494;2023-05-10T02:08:40;9.32;;;8.25;;
10939;SDS011;5522;42.696;23.494;2023-05-10T02:11:10;8.73;;;8.00;;
10939;SDS011;5522;42.696;23.494;2023-05-10T02:13:39;8.68;;;7.88;;
10939;SDS011;5522;42.696;23.494;2023-05-10T02:16:08;7.80;;;7.20;;
10939;SDS011;5522;42.696;23.494;2023-05-10T02:18:36;7.68;;;7.07;;
10939;SDS011;5522;42.696;23.494;2023-05-10T02:21:04;6.65;;;6.15;;
10939;SDS011;5522;42.696;23.494;2023-05-10T02:23:31;6.15;;;5.65;;
10939;SDS011;5522;42.696;23.494;2023-05-10T02:26:00;7.82;;;4.82;;
10939;SDS011;5522;42.696;23.494;2023-05-10T02:28:28;3.35;;;3.20;;
10939;SDS011;5522;42.696;23.494;2023-05-10T02:30:55;4.38;;;4.15;;
10939;SDS011;5522;42.696;23.494;2023-05-10T02:33:23;3.60;;;3.35;;
10939;SDS011;5522;42.696;23.494;2023-05-10T02:35:51;3.78;;;2.58;;
10939;SDS011;5522;42.696;23.494;2023-05-10T02:38:20;4.05;;;3.05;;
10939;SDS011;5522;42.696;23.494;2023-05-10T02:40:48;2.25;;;2.25;;
10939;SDS011;5522;42.696;23.494;2023-05-10T02:43:17;4.47;;;2.20;;
10939;SDS011;5522;42.696;23.494;2023-05-10T02:45:46;1.73;;;1.63;;
10939;SDS011;5522;42.696;23.494;2023-05-10T02:48:14;2.63;;;2.53;;
10939;SDS011;5522;42.696;23.494;2023-05-10T02:50:42;2.50;;;2.40;;
10939;SDS011;5522;42.696;23.494;2023-05-10T02:53:17;2.13;;;2.03;;
10939;SDS011;5522;42.696;23.494;2023-05-10T02:55:49;3.85;;;2.70;;
10939;SDS011;5522;42.696;23.494;2023-05-10T02:58:18;2.20;;;2.10;;
10939;SDS011;5522;42.696;23.494;2023-05-10T03:00:46;2.28;;;2.08;;
10939;SDS011;5522;42.696;23.494;2023-05-10T03:03:13;3.80;;;2.28;;
10939;SDS011;5522;42.696;23.494;2023-05-10T03:05:39;1.95;;;1.85;;
10939;SDS011;5522;42.696;23.494;2023-05-10T03:08:06;2.05;;;1.92;;
10939;SDS011;5522;42.696;23.494;2023-05-10T03:10:39;3.15;;;2.42;;
10939;SDS011;5522;42.696;23.494;2023-05-10T03:13:16;2.88;;;1.60;;
10939;SDS011;5522;42.696;23.494;2023-05-10T03:15:54;2.08;;;1.85;;
10939;SDS011;5522;42.696;23.494;2023-05-10T03:18:28;2.30;;;2.20;;
10939;SDS011;5522;42.696;23.494;2023-05-10T03:21:01;4.70;;;2.30;;
10939;SDS011;5522;42.696;23.494;2023-05-10T03:23:34;3.05;;;2.25;;
10939;SDS011;5522;42.696;23.494;2023-05-10T03:26:03;1.50;;;1.40;;
10939;SDS011;5522;42.696;23.494;2023-05-10T03:28:32;1.60;;;1.42;;
10939;SDS011;5522;42.696;23.494;2023-05-10T03:31:01;1.88;;;1.45;;
10939;SDS011;5522;42.696;23.494;2023-05-10T03:33:29;0.93;;;0.93;;
10939;SDS011;5522;42.696;23.494;2023-05-10T03:35:55;1.42;;;0.93;;
10939;SDS011;5522;42.696;23.494;2023-05-10T03:38:23;2.17;;;1.55;;
10939;SDS011;5522;42.696;23.494;2023-05-10T03:40:50;2.40;;;1.30;;
10939;SDS011;5522;42.696;23.494;2023-05-10T03:43:18;1.88;;;1.00;;
10939;SDS011;5522;42.696;23.494;2023-05-10T03:45:44;1.33;;;1.23;;
10939;SDS011;5522;42.696;23.494;2023-05-10T03:48:11;0.80;;;0.80;;
10939;SDS011;5522;42.696;23.494;2023-05-10T03:50:38;1.15;;;1.05;;
10939;SDS011;5522;42.696;23.494;2023-05-10T03:53:05;5.18;;;0.90;;
10939;SDS011;5522;42.696;23.494;2023-05-10T03:55:32;0.98;;;0.98;;
10939;SDS011;5522;42.696;23.494;2023-05-10T03:58:01;0.98;;;0.90;;
10939;SDS011;5522;42.696;23.494;2023-05-10T04:00:29;2.47;;;0.90;;
10939;SDS011;5522;42.696;23.494;2023-05-10T04:02:56;0.70;;;0.70;;
10939;SDS011;5522;42.696;23.494;2023-05-10T04:05:23;1.33;;;0.90;;
10939;SDS011;5522;42.696;23.494;2023-05-10T04:07:50;1.20;;;1.10;;
10939;SDS011;5522;42.696;23.494;2023-05-10T04:10:17;2.05;;;0.70;;
10939;SDS011;5522;42.696;23.494;2023-05-10T04:12:44;1.02;;;0.93;;
10939;SDS011;5522;42.696;23.494;2023-05-10T04:15:10;0.85;;;0.85;;
10939;SDS011;5522;42.696;23.494;2023-05-10T04:17:39;1.83;;;1.02;;
10939;SDS011;5522;42.696;23.494;2023-05-10T04:20:06;2.80;;;1.15;;
10939;SDS011;5522;42.696;23.494;2023-05-10T04:22:33;2.60;;;0.90;;
10939;SDS011;5522;42.696;23.494;2023-05-10T04:25:00;1.13;;;0.95;;
10939;SDS011;5522;42.696;23.494;2023-05-10T04:27:27;1.95;;;0.93;;
10939;SDS011;5522;42.696;23.494;2023-05-10T04:29:54;1.42;;;1.02;;
10939;SDS011;5522;42.696;23.494;2023-05-10T04:32:21;1.35;;;1.10;;
10939;SDS011;5522;42.696;23.494;2023-05-10T04:34:49;1.60;;;1.45;;
10939;SDS011;5522;42.696;23.494;2023-05-10T04:37:16;1.58;;;1.48;;
10939;SDS011;5522;42.696;23.494;2023-05-10T04:39:43;2.17;;;1.23;;
10939;SDS011;5522;42.696;23.494;2023-05-10T04:42:10;3.80;;;2.17;;
10939;SDS011;5522;42.696;23.494;2023-05-10T04:44:39;5.30;;;2.20;;
10939;SDS011;5522;42.696;23.494;2023-05-10T04:47:06;2.90;;;2.70;;
10939;SDS011;5522;42.696;23.494;2023-05-10T04:49:33;2.83;;;2.58;;
10939;SDS011;5522;42.696;23.494;2023-05-10T04:52:02;2.63;;;2.13;;
10939;SDS011;5522;42.696;23.494;2023-05-10T04:54:28;2.10;;;1.98;;
10939;SDS011;5522;42.696;23.494;2023-05-10T04:56:55;3.20;;;2.22;;
10939;SDS011;5522;42.696;23.494;2023-05-10T04:59:22;4.28;;;2.47;;
10939;SDS011;5522;42.696;23.494;2023-05-10T05:01:49;6.63;;;2.28;;
10939;SDS011;5522;42.696;23.494;2023-05-10T05:04:16;2.08;;;1.98;;
10939;SDS011;5522;42.696;23.494;2023-05-10T05:06:43;4.55;;;1.92;;
10939;SDS011;5522;42.696;23.494;2023-05-10T05:09:11;1.98;;;1.88;;
10939;SDS011;5522;42.696;23.494;2023-05-10T05:11:37;1.95;;;1.42;;
10939;SDS011;5522;42.696;23.494;2023-05-10T05:14:05;4.03;;;1.77;;
10939;SDS011;5522;42.696;23.494;2023-05-10T05:16:32;1.70;;;1.50;;
10939;SDS011;5522;42.696;23.494;2023-05-10T05:18:59;4.63;;;1.50;;
10939;SDS011;5522;42.696;23.494;2023-05-10T05:21:26;3.78;;;1.42;;
10939;SDS011;5522;42.696;23.494;2023-05-10T05:23:53;2.25;;;1.20;;
10939;SDS011;5522;42.696;23.494;2023-05-10T05:26:22;4.18;;;1.38;;
10939;SDS011;5522;42.696;23.494;2023-05-10T05:28:49;1.00;;;1.00;;
10939;SDS011;5522;42.696;23.494;2023-05-10T05:31:18;2.50;;;1.08;;
10939;SDS011;5522;42.696;23.494;2023-05-10T05:33:45;1.30;;;1.13;;
10939;SDS011;5522;42.696;23.494;2023-05-10T05:36:12;2.17;;;1.40;;
10939;SDS011;5522;42.696;23.494;2023-05-10T05:38:39;1.60;;;1.05;;
10939;SDS011;5522;42.696;23.494;2023-05-10T05:41:06;1.70;;;1.38;;
10939;SDS011;5522;42.696;23.494;2023-05-10T05:43:34;1.30;;;1.20;;
10939;SDS011;5522;42.696;23.494;2023-05-10T05:46:01;1.25;;;1.15;;
10939;SDS011;5522;42.696;23.494;2023-05-10T05:48:29;2.78;;;1.38;;
10939;SDS011;5522;42.696;23.494;2023-05-10T05:50:56;4.43;;;1.50;;
10939;SDS011;5522;42.696;23.494;2023-05-10T05:53:23;2.55;;;0.95;;
10939;SDS011;5522;42.696;23.494;2023-05-10T05:55:51;1.27;;;1.10;;
10939;SDS011;5522;42.696;23.494;2023-05-10T05:58:19;1.20;;;1.00;;
10939;SDS011;5522;42.696;23.494;2023-05-10T06:00:47;1.00;;;1.00;;
10939;SDS011;5522;42.696;23.494;2023-05-10T06:03:14;1.00;;;0.90;;
10939;SDS011;5522;42.696;23.494;2023-05-10T06:05:41;1.50;;;0.80;;
10939;SDS011;5522;42.696;23.494;2023-05-10T06:08:08;1.05;;;0.70;;
10939;SDS011;5522;42.696;23.494;2023-05-10T06:10:34;6.68;;;0.77;;
10939;SDS011;5522;42.696;23.494;2023-05-10T06:13:01;2.72;;;0.75;;
10939;SDS011;5522;42.696;23.494;2023-05-10T06:15:28;2.85;;;0.70;;
10939;SDS011;5522;42.696;23.494;2023-05-10T06:17:57;0.77;;;0.70;;
10939;SDS011;5522;42.696;23.494;2023-05-10T06:20:23;0.68;;;0.60;;
10939;SDS011;5522;42.696;23.494;2023-05-10T06:22:50;1.50;;;0.63;;
10939;SDS011;5522;42.696;23.494;2023-05-10T06:25:17;0.70;;;0.70;;
10939;SDS011;5522;42.696;23.494;2023-05-10T06:27:44;1.02;;;1.02;;
10939;SDS011;5522;42.696;23.494;2023-05-10T06:30:11;0.80;;;0.65;;
10939;SDS011;5522;42.696;23.494;2023-05-10T06:32:40;1.50;;;0.60;;
10939;SDS011;5522;42.696;23.494;2023-05-10T06:35:10;0.88;;;0.70;;
10939;SDS011;5522;42.696;23.494;2023-05-10T06:37:37;0.60;;;0.60;;
10939;SDS011;5522;42.696;23.494;2023-05-10T06:40:05;1.45;;;0.70;;
10939;SDS011;5522;42.696;23.494;2023-05-10T06:42:33;1.95;;;0.60;;
10939;SDS011;5522;42.696;23.494;2023-05-10T06:45:00;1.05;;;0.73;;
10939;SDS011;5522;42.696;23.494;2023-05-10T06:47:26;0.70;;;0.70;;
10939;SDS011;5522;42.696;23.494;2023-05-10T06:49:53;2.53;;;0.77;;
10939;SDS011;5522;42.696;23.494;2023-05-10T06:52:22;0.68;;;0.68;;
10939;SDS011;5522;42.696;23.494;2023-05-10T06:54:49;2.15;;;0.88;;
10939;SDS011;5522;42.696;23.494;2023-05-10T06:57:16;1.45;;;0.70;;
10939;SDS011;5522;42.696;23.494;2023-05-10T06:59:44;1.35;;;0.70;;
10939;SDS011;5522;42.696;23.494;2023-05-10T07:02:10;0.60;;;0.60;;
10939;SDS011;5522;42.696;23.494;2023-05-10T07:04:37;0.82;;;0.82;;
10939;SDS011;5522;42.696;23.494;2023-05-10T07:07:04;2.35;;;0.80;;
10939;SDS011;5522;42.696;23.494;2023-05-10T07:09:33;1.90;;;0.80;;
10939;SDS011;5522;42.696;23.494;2023-05-10T07:11:59;3.95;;;0.80;;
10939;SDS011;5522;42.696;23.494;2023-05-10T07:14:26;2.10;;;0.65;;
10939;SDS011;5522;42.696;23.494;2023-05-10T07:16:53;1.95;;;0.80;;
10939;SDS011;5522;42.696;23.494;2023-05-10T07:19:20;0.77;;;0.77;;
10939;SDS011;5522;42.696;23.494;2023-05-10T07:21:47;0.90;;;0.80;;
10939;SDS011;5522;42.696;23.494;2023-05-10T07:24:15;0.95;;;0.60;;
10939;SDS011;5522;42.696;23.494;2023-05-10T07:26:44;2.60;;;0.70;;
10939;SDS011;5522;42.696;23.494;2023-05-10T07:29:11;0.80;;;0.80;;
10939;SDS011;5522;42.696;23.494;2023-05-10T07:31:38;0.95;;;0.52;;
10939;SDS011;5522;42.696;23.494;2023-05-10T07:34:06;1.17;;;0.70;;
10939;SDS011;5522;42.696;23.494;2023-05-10T07:36:33;1.50;;;0.60;;
10939;SDS011;5522;42.696;23.494;2023-05-10T07:39:00;2.30;;;0.70;;
10939;SDS011;5522;42.696;23.494;2023-05-10T07:41:28;1.67;;;1.20;;
10939;SDS011;5522;42.696;23.494;2023-05-10T07:43:56;1.27;;;0.55;;
10939;SDS011;5522;42.696;23.494;2023-05-10T07:46:23;0.88;;;0.60;;
10939;SDS011;5522;42.696;23.494;2023-05-10T07:48:50;1.77;;;0.70;;
10939;SDS011;5522;42.696;23.494;2023-05-10T07:51:17;0.60;;;0.60;;
10939;SDS011;5522;42.696;23.494;2023-05-10T07:53:43;1.05;;;0.60;;
10939;SDS011;5522;42.696;23.494;2023-05-10T07:56:20;3.83;;;1.02;;
10939;SDS011;5522;42.696;23.494;2023-05-10T07:58:48;0.98;;;0.80;;
10939;SDS011;5522;42.696;23.494;2023-05-10T08:01:16;6.45;;;1.33;;
10939;SDS011;5522;42.696;23.494;2023-05-10T08:03:43;1.05;;;1.02;;
10939;SDS011;5522;42.696;23.494;2023-05-10T08:06:10;1.27;;;0.90;;
10939;SDS011;5522;42.696;23.494;2023-05-10T08:08:37;0.82;;;0.82;;
10939;SDS011;5522;42.696;23.494;2023-05-10T08:11:04;1.50;;;1.40;;
10939;SDS011;5522;42.696;23.494;2023-05-10T08:13:31;3.50;;;1.17;;
10939;SDS011;5522;42.696;23.494;2023-05-10T08:15:57;1.27;;;0.93;;
10939;SDS011;5522;42.696;23.494;2023-05-10T08:18:26;2.17;;;1.13;;
10939;SDS011;5522;42.696;23.494;2023-05-10T08:20:53;1.50;;;1.02;;
10939;SDS011;5522;42.696;23.494;2023-05-10T08:23:20;1.75;;;1.23;;
10939;SDS011;5522;42.696;23.494;2023-05-10T08:25:47;3.53;;;1.30;;
10939;SDS011;5522;42.696;23.494;2023-05-10T08:28:14;1.75;;;0.80;;
10939;SDS011;5522;42.696;23.494;2023-05-10T08:30:41;1.63;;;0.82;;
10939;SDS011;5522;42.696;23.494;2023-05-10T08:33:08;3.00;;;0.73;;
10939;SDS011;5522;42.696;23.494;2023-05-10T08:35:36;2.45;;;0.80;;
10939;SDS011;5522;42.696;23.494;2023-05-10T08:38:03;1.25;;;0.80;;
10939;SDS011;5522;42.696;23.494;2023-05-10T08:40:30;1.02;;;0.70;;
10939;SDS011;5522;42.696;23.494;2023-05-10T08:42:58;1.38;;;1.00;;
10939;SDS011;5522;42.696;23.494;2023-05-10T08:45:32;2.78;;;1.35;;
10939;SDS011;5522;42.696;23.494;2023-05-10T08:48:00;2.28;;;0.90;;
10939;SDS011;5522;42.696;23.494;2023-05-10T08:50:28;2.95;;;0.80;;
10939;SDS011;5522;42.696;23.494;2023-05-10T08:52:59;2.35;;;0.95;;
10939;SDS011;5522;42.696;23.494;2023-05-10T08:55:29;3.15;;;0.98;;
10939;SDS011;5522;42.696;23.494;2023-05-10T08:57:58;1.80;;;0.70;;
10939;SDS011;5522;42.696;23.494;2023-05-10T09:00:25;1.48;;;0.80;;
10939;SDS011;5522;42.696;23.494;2023-05-10T09:02:52;0.63;;;0.63;;
10939;SDS011;5522;42.696;23.494;2023-05-10T09:05:19;1.98;;;0.80;;
10939;SDS011;5522;42.696;23.494;2023-05-10T09:07:46;0.70;;;0.70;;
10939;SDS011;5522;42.696;23.494;2023-05-10T09:10:14;1.27;;;0.70;;
10939;SDS011;5522;42.696;23.494;2023-05-10T09:12:42;0.68;;;0.68;;
10939;SDS011;5522;42.696;23.494;2023-05-10T09:15:10;0.75;;;0.75;;
10939;SDS011;5522;42.696;23.494;2023-05-10T09:17:39;2.20;;;0.70;;
10939;SDS011;5522;42.696;23.494;2023-05-10T09:20:07;1.67;;;1.05;;
10939;SDS011;5522;42.696;23.494;2023-05-10T09:22:34;1.55;;;1.45;;
10939;SDS011;5522;42.696;23.494;2023-05-10T09:25:08;3.20;;;0.93;;
10939;SDS011;5522;42.696;23.494;2023-05-10T09:27:37;3.00;;;0.90;;
10939;SDS011;5522;42.696;23.494;2023-05-10T09:30:05;0.77;;;0.60;;
10939;SDS011;5522;42.696;23.494;2023-05-10T09:32:37;2.38;;;1.17;;
10939;SDS011;5522;42.696;23.494;2023-05-10T09:35:08;0.65;;;0.57;;
10939;SDS011;5522;42.696;23.494;2023-05-10T09:37:36;1.00;;;0.80;;
10939;SDS011;5522;42.696;23.494;2023-05-10T09:40:04;0.80;;;0.80;;
10939;SDS011;5522;42.696;23.494;2023-05-10T09:42:32;0.60;;;0.60;;
10939;SDS011;5522;42.696;23.494;2023-05-10T09:45:02;0.70;;;0.70;;
10939;SDS011;5522;42.696;23.494;2023-05-10T09:47:31;0.60;;;0.60;;
10939;SDS011;5522;42.696;23.494;2023-05-10T09:49:59;4.03;;;0.80;;
10939;SDS011;5522;42.696;23.494;2023-05-10T09:52:29;2.28;;;0.50;;
10939;SDS011;5522;42.696;23.494;2023-05-10T09:54:57;0.50;;;0.50;;
10939;SDS011;5522;42.696;23.494;2023-05-10T09:57:24;0.80;;;0.60;;
10939;SDS011;5522;42.696;23.494;2023-05-10T09:59:52;1.20;;;0.73;;
10939;SDS011;5522;42.696;23.494;2023-05-10T10:02:21;4.00;;;0.80;;
10939;SDS011;5522;42.696;23.494;2023-05-10T10:04:55;0.70;;;0.70;;
10939;SDS011;5522;42.696;23.494;2023-05-10T10:07:22;0.70;;;0.70;;
10939;SDS011;5522;42.696;23.494;2023-05-10T10:09:51;1.15;;;0.50;;
10939;SDS011;5522;42.696;23.494;2023-05-10T10:12:19;2.05;;;0.60;;
10939;SDS011;5522;42.696;23.494;2023-05-10T10:14:46;1.95;;;0.70;;
10939;SDS011;5522;42.696;23.494;2023-05-10T10:17:15;0.60;;;0.60;;
10939;SDS011;5522;42.696;23.494;2023-05-10T10:19:43;1.75;;;0.60;;
10939;SDS011;5522;42.696;23.494;2023-05-10T10:22:11;2.65;;;0.40;;
10939;SDS011;5522;42.696;23.494;2023-05-10T10:24:38;1.90;;;0.60;;
10939;SDS011;5522;42.696;23.494;2023-05-10T10:27:15;1.77;;;0.50;;
10939;SDS011;5522;42.696;23.494;2023-05-10T10:29:52;0.40;;;0.40;;
10939;SDS011;5522;42.696;23.494;2023-05-10T10:32:29;1.48;;;0.50;;
10939;SDS011;5522;42.696;23.494;2023-05-10T10:35:05;0.65;;;0.50;;
10939;SDS011;5522;42.696;23.494;2023-05-10T10:37:44;2.30;;;0.50;;
10939;SDS011;5522;42.696;23.494;2023-05-10T10:42:57;0.50;;;0.50;;
10939;SDS011;5522;42.696;23.494;2023-05-10T10:45:45;2.47;;;0.73;;
10939;SDS011;5522;42.696;23.494;2023-05-10T10:48:35;3.75;;;0.50;;
10939;SDS011;5522;42.696;23.494;2023-05-10T10:51:03;0.60;;;0.50;;
10939;SDS011;5522;42.696;23.494;2023-05-10T10:53:30;1.63;;;0.52;;
10939;SDS011;5522;42.696;23.494;2023-05-10T10:56:06;3.55;;;0.50;;
10939;SDS011;5522;42.696;23.494;2023-05-10T10:58:34;0.50;;;0.50;;
10939;SDS011;5522;42.696;23.494;2023-05-10T11:01:12;0.60;;;0.60;;
10939;SDS011;5522;42.696;23.494;2023-05-10T11:03:40;1.33;;;0.43;;
10939;SDS011;5522;42.696;23.494;2023-05-10T11:06:09;0.55;;;0.55;;
10939;SDS011;5522;42.696;23.494;2023-05-10T11:08:41;0.60;;;0.60;;
10939;SDS011;5522;42.696;23.494;2023-05-10T11:11:10;3.05;;;0.70;;
10939;SDS011;5522;42.696;23.494;2023-05-10T11:13:41;1.80;;;0.70;;
10939;SDS011;5522;42.696;23.494;2023-05-10T11:16:09;1.08;;;0.70;;
10939;SDS011;5522;42.696;23.494;2023-05-10T11:18:40;0.73;;;0.68;;
10939;SDS011;5522;42.696;23.494;2023-05-10T11:21:19;4.05;;;0.65;;
10939;SDS011;5522;42.696;23.494;2023-05-10T11:23:49;1.38;;;0.60;;
10939;SDS011;5522;42.696;23.494;2023-05-10T11:26:19;1.08;;;0.50;;
10939;SDS011;5522;42.696;23.494;2023-05-10T11:28:48;1.88;;;0.70;;
10939;SDS011;5522;42.696;23.494;2023-05-10T11:31:15;5.78;;;1.00;;
10939;SDS011;5522;42.696;23.494;2023-05-10T11:33:43;0.80;;;0.80;;
10939;SDS011;5522;42.696;23.494;2023-05-10T11:36:11;2.70;;;0.65;;
10939;SDS011;5522;42.696;23.494;2023-05-10T11:38:40;1.52;;;0.60;;
10939;SDS011;5522;42.696;23.494;2023-05-10T11:41:07;5.07;;;0.60;;
10939;SDS011;5522;42.696;23.494;2023-05-10T11:43:36;0.70;;;0.70;;
10939;SDS011;5522;42.696;23.494;2023-05-10T11:46:04;0.70;;;0.70;;
10939;SDS011;5522;42.696;23.494;2023-05-10T11:48:32;1.60;;;0.60;;
10939;SDS011;5522;42.696;23.494;2023-05-10T11:50:59;0.88;;;0.60;;
10939;SDS011;5522;42.696;23.494;2023-05-10T11:53:29;1.25;;;0.50;;
10939;SDS011;5522;42.696;23.494;2023-05-10T11:56:03;1.85;;;0.50;;
10939;SDS011;5522;42.696;23.494;2023-05-10T11:58:31;3.90;;;0.47;;
10939;SDS011;5522;42.696;23.494;2023-05-10T12:00:58;0.70;;;0.40;;
10939;SDS011;5522;42.696;23.494;2023-05-10T12:03:26;0.68;;;0.68;;
10939;SDS011;5522;42.696;23.494;2023-05-10T12:05:53;3.45;;;0.60;;
10939;SDS011;5522;42.696;23.494;2023-05-10T12:08:21;0.82;;;0.60;;
10939;SDS011;5522;42.696;23.494;2023-05-10T12:10:49;1.20;;;0.50;;
10939;SDS011;5522;42.696;23.494;2023-05-10T12:13:18;3.30;;;0.50;;
10939;SDS011;5522;42.696;23.494;2023-05-10T12:15:46;0.55;;;0.50;;
10939;SDS011;5522;42.696;23.494;2023-05-10T12:18:13;2.35;;;0.50;;
10939;SDS011;5522;42.696;23.494;2023-05-10T12:20:40;2.60;;;0.50;;
10939;SDS011;5522;42.696;23.494;2023-05-10T12:23:08;0.50;;;0.50;;
10939;SDS011;5522;42.696;23.494;2023-05-10T12:25:36;1.75;;;0.60;;
10939;SDS011;5522;42.696;23.494;2023-05-10T12:28:04;0.75;;;0.50;;
10939;SDS011;5522;42.696;23.494;2023-05-10T12:30:34;1.77;;;0.52;;
10939;SDS011;5522;42.696;23.494;2023-05-10T12:33:02;2.10;;;0.68;;
10939;SDS011;5522;42.696;23.494;2023-05-10T12:35:33;0.43;;;0.43;;
10939;SDS011;5522;42.696;23.494;2023-05-10T12:38:24;1.67;;;0.60;;
10939;SDS011;5522;42.696;23.494;2023-05-10T12:40:51;2.97;;;0.60;;
10939;SDS011;5522;42.696;23.494;2023-05-10T12:43:18;2.20;;;0.80;;
10939;SDS011;5522;42.696;23.494;2023-05-10T12:45:47;0.60;;;0.60;;
10939;SDS011;5522;42.696;23.494;2023-05-10T12:48:14;1.05;;;0.95;;
10939;SDS011;5522;42.696;23.494;2023-05-10T12:50:40;0.57;;;0.52;;
10939;SDS011;5522;42.696;23.494;2023-05-10T12:53:07;0.60;;;0.60;;
10939;SDS011;5522;42.696;23.494;2023-05-10T12:55:34;1.40;;;1.08;;
10939;SDS011;5522;42.696;23.494;2023-05-10T12:58:01;0.73;;;0.73;;
10939;SDS011;5522;42.696;23.494;2023-05-10T13:00:28;12.40;;;8.95;;
10939;SDS011;5522;42.696;23.494;2023-05-10T13:02:56;2.25;;;2.00;;
10939;SDS011;5522;42.696;23.494;2023-05-10T13:05:23;2.70;;;1.55;;
10939;SDS011;5522;42.696;23.494;2023-05-10T13:07:50;1.00;;;0.80;;
10939;SDS011;5522;42.696;23.494;2023-05-10T13:10:17;4.82;;;0.77;;
10939;SDS011;5522;42.696;23.494;2023-05-10T13:12:44;1.65;;;0.60;;
10939;SDS011;5522;42.696;23.494;2023-05-10T13:15:10;1.42;;;1.00;;
10939;SDS011;5522;42.696;23.494;2023-05-10T13:17:37;1.40;;;0.70;;
10939;SDS011;5522;42.696;23.494;2023-05-10T13:20:07;0.68;;;0.68;;
10939;SDS011;5522;42.696;23.494;2023-05-10T13:22:35;1.13;;;1.13;;
10939;SDS011;5522;42.696;23.494;2023-05-10T13:25:02;2.03;;;1.00;;
10939;SDS011;5522;42.696;23.494;2023-05-10T13:27:29;1.95;;;0.82;;
10939;SDS011;5522;42.696;23.494;2023-05-10T13:29:56;0.77;;;0.77;;
10939;SDS011;5522;42.696;23.494;2023-05-10T13:32:24;0.75;;;0.68;;
10939;SDS011;5522;42.696;23.494;2023-05-10T13:34:51;0.75;;;0.75;;
10939;SDS011;5522;42.696;23.494;2023-05-10T13:37:19;0.80;;;0.70;;
10939;SDS011;5522;42.696;23.494;2023-05-10T13:39:46;2.72;;;0.60;;
10939;SDS011;5522;42.696;23.494;2023-05-10T13:42:13;1.20;;;0.70;;
10939;SDS011;5522;42.696;23.494;2023-05-10T13:44:40;4.93;;;0.77;;
10939;SDS011;5522;42.696;23.494;2023-05-10T13:47:06;1.67;;;1.10;;
10939;SDS011;5522;42.696;23.494;2023-05-10T13:49:33;2.35;;;0.80;;
10939;SDS011;5522;42.696;23.494;2023-05-10T13:52:00;1.63;;;0.65;;
10939;SDS011;5522;42.696;23.494;2023-05-10T13:54:32;2.40;;;0.98;;
10939;SDS011;5522;42.696;23.494;2023-05-10T13:56:59;0.63;;;0.63;;
10939;SDS011;5522;42.696;23.494;2023-05-10T13:59:26;3.17;;;0.70;;
10939;SDS011;5522;42.696;23.494;2023-05-10T14:01:53;1.25;;;0.60;;
10939;SDS011;5522;42.696;23.494;2023-05-10T14:04:20;2.97;;;0.70;;
10939;SDS011;5522;42.696;23.494;2023-05-10T14:06:46;2.95;;;0.65;;
10939;SDS011;5522;42.696;23.494;2023-05-10T14:09:13;1.95;;;0.80;;
10939;SDS011;5522;42.696;23.494;2023-05-10T14:11:42;0.63;;;0.63;;
10939;SDS011;5522;42.696;23.494;2023-05-10T14:14:10;1.40;;;0.70;;
10939;SDS011;5522;42.696;23.494;2023-05-10T14:16:37;0.80;;;0.80;;
10939;SDS011;5522;42.696;23.494;2023-05-10T14:19:04;1.45;;;0.60;;
10939;SDS011;5522;42.696;23.494;2023-05-10T14:21:31;2.83;;;0.60;;
10939;SDS011;5522;42.696;23.494;2023-05-10T14:23:58;2.03;;;0.95;;
10939;SDS011;5522;42.696;23.494;2023-05-10T14:26:25;0.60;;;0.60;;
10939;SDS011;5522;42.696;23.494;2023-05-10T14:28:53;1.50;;;0.85;;
10939;SDS011;5522;42.696;23.494;2023-05-10T14:31:20;28.17;;;16.92;;
10939;SDS011;5522;42.696;23.494;2023-05-10T14:33:49;5.07;;;1.33;;
10939;SDS011;5522;42.696;23.494;2023-05-10T14:36:17;1.10;;;1.10;;
10939;SDS011;5522;42.696;23.494;2023-05-10T14:38:46;3.15;;;0.80;;
10939;SDS011;5522;42.696;23.494;2023-05-10T14:41:15;2.28;;;1.20;;
10939;SDS011;5522;42.696;23.494;2023-05-10T14:43:42;1.92;;;1.83;;
10939;SDS011;5522;42.696;23.494;2023-05-10T14:46:10;4.60;;;2.35;;
10939;SDS011;5522;42.696;23.494;2023-05-10T14:48:37;3.95;;;2.97;;
10939;SDS011;5522;42.696;23.494;2023-05-10T14:51:04;3.00;;;2.72;;
10939;SDS011;5522;42.696;23.494;2023-05-10T14:53:37;11.27;;;8.50;;
10939;SDS011;5522;42.696;23.494;2023-05-10T14:56:04;20.10;;;12.38;;
10939;SDS011;5522;42.696;23.494;2023-05-10T14:58:32;4.07;;;1.88;;
10939;SDS011;5522;42.696;23.494;2023-05-10T15:00:59;3.08;;;1.27;;
10939;SDS011;5522;42.696;23.494;2023-05-10T15:03:27;3.25;;;1.63;;